sensor_id;sensor_type;location;lat;lon;timestamp;temperature;humidity
55313;DHT22;46892;45.668;11.756;2023-03-31T00:02:19;11.40;80.20
55313;DHT22;46892;45.668;11.756;2023-03-31T00:04:47;11.30;80.20
55313;DHT22;46892;45.668;11.756;2023-03-31T00:07:18;11.40;80.30
55313;DHT22;46892;45.668;11.756;2023-03-31T00:09:47;11.40;80.30
55313;DHT22;46892;45.668;11.756;2023-03-31T00:12:14;11.40;80.30
55313;DHT22;46892;45.668;11.756;2023-03-31T00:14:41;11.40;80.40
55313;DHT22;46892;45.668;11.756;2023-03-31T00:17:08;11.40;80.40
55313;DHT22;46892;45.668;11.756;2023-03-31T00:19:35;11.50;80.50
55313;DHT22;46892;45.668;11.756;2023-03-31T00:22:01;11.50;80.40
55313;DHT22;46892;45.668;11.756;2023-03-31T00:24:28;11.50;80.40
55313;DHT22;46892;45.668;11.756;2023-03-31T00:27:02;11.50;80.40
55313;DHT22;46892;45.668;11.756;2023-03-31T00:29:28;11.50;80.50
55313;DHT22;46892;45.668;11.756;2023-03-31T00:31:54;11.50;80.50
55313;DHT22;46892;45.668;11.756;2023-03-31T00:34:20;11.50;80.70
55313;DHT22;46892;45.668;11.756;2023-03-31T00:36:46;11.50;80.90
55313;DHT22;46892;45.668;11.756;2023-03-31T00:39:14;11.50;80.80
55313;DHT22;46892;45.668;11.756;2023-03-31T00:41:40;11.40;80.70
55313;DHT22;46892;45.668;11.756;2023-03-31T00:51:59;11.50;81.20
55313;DHT22;46892;45.668;11.756;2023-03-31T00:54:27;11.50;81.20
55313;DHT22;46892;45.668;11.756;2023-03-31T00:56:55;11.40;81.20
55313;DHT22;46892;45.668;11.756;2023-03-31T00:59:26;11.40;80.80
55313;DHT22;46892;45.668;11.756;2023-03-31T01:01:53;11.40;81.30
55313;DHT22;46892;45.668;11.756;2023-03-31T01:04:19;11.40;81.30
55313;DHT22;46892;45.668;11.756;2023-03-31T01:07:03;11.40;81.60
55313;DHT22;46892;45.668;11.756;2023-03-31T01:09:30;11.50;81.30
55313;DHT22;46892;45.668;11.756;2023-03-31T01:12:01;11.40;81.30
55313;DHT22;46892;45.668;11.756;2023-03-31T01:14:28;11.40;81.40
55313;DHT22;46892;45.668;11.756;2023-03-31T01:16:54;11.40;81.50
55313;DHT22;46892;45.668;11.756;2023-03-31T01:22:56;11.40;81.10
55313;DHT22;46892;45.668;11.756;2023-03-31T01:25:53;11.40;81.40
55313;DHT22;46892;45.668;11.756;2023-03-31T01:40:12;11.30;80.90
55313;DHT22;46892;45.668;11.756;2023-03-31T01:43:22;11.30;81.20
55313;DHT22;46892;45.668;11.756;2023-03-31T01:45:53;11.30;81.70
55313;DHT22;46892;45.668;11.756;2023-03-31T01:51:18;11.30;82.30
55313;DHT22;46892;45.668;11.756;2023-03-31T01:53:50;11.50;82.80
55313;DHT22;46892;45.668;11.756;2023-03-31T01:56:25;11.60;82.30
55313;DHT22;46892;45.668;11.756;2023-03-31T01:59:03;11.60;81.80
55313;DHT22;46892;45.668;11.756;2023-03-31T02:01:45;11.60;81.70
55313;DHT22;46892;45.668;11.756;2023-03-31T02:04:26;11.60;81.40
55313;DHT22;46892;45.668;11.756;2023-03-31T02:06:58;11.60;81.20
55313;DHT22;46892;45.668;11.756;2023-03-31T02:09:30;11.50;81.30
55313;DHT22;46892;45.668;11.756;2023-03-31T02:11:57;11.50;81.20
55313;DHT22;46892;45.668;11.756;2023-03-31T02:14:26;11.40;81.20
55313;DHT22;46892;45.668;11.756;2023-03-31T02:16:56;11.40;81.60
55313;DHT22;46892;45.668;11.756;2023-03-31T02:19:30;11.20;81.80
55313;DHT22;46892;45.668;11.756;2023-03-31T02:21:58;11.20;81.80
55313;DHT22;46892;45.668;11.756;2023-03-31T02:24:25;11.30;81.70
55313;DHT22;46892;45.668;11.756;2023-03-31T02:27:31;11.30;81.20
55313;DHT22;46892;45.668;11.756;2023-03-31T02:29:58;11.40;81.50
55313;DHT22;46892;45.668;11.756;2023-03-31T02:32:37;11.30;81.10
55313;DHT22;46892;45.668;11.756;2023-03-31T02:35:04;11.20;81.80
55313;DHT22;46892;45.668;11.756;2023-03-31T02:37:30;11.10;82.00
55313;DHT22;46892;45.668;11.756;2023-03-31T02:40:00;11.10;82.30
55313;DHT22;46892;45.668;11.756;2023-03-31T02:42:29;11.10;82.50
55313;DHT22;46892;45.668;11.756;2023-03-31T02:45:01;11.10;82.60
55313;DHT22;46892;45.668;11.756;2023-03-31T02:47:28;11.10;82.70
55313;DHT22;46892;45.668;11.756;2023-03-31T02:49:56;11.20;82.50
55313;DHT22;46892;45.668;11.756;2023-03-31T02:55:52;11.20;82.50
55313;DHT22;46892;45.668;11.756;2023-03-31T02:58:32;11.20;82.50
55313;DHT22;46892;45.668;11.756;2023-03-31T03:06:35;11.30;81.80
55313;DHT22;46892;45.668;11.756;2023-03-31T03:09:32;11.30;82.00
55313;DHT22;46892;45.668;11.756;2023-03-31T03:12:10;11.20;82.20
55313;DHT22;46892;45.668;11.756;2023-03-31T03:14:54;11.30;82.40
55313;DHT22;46892;45.668;11.756;2023-03-31T03:17:29;11.20;82.50
55313;DHT22;46892;45.668;11.756;2023-03-31T03:19:59;11.20;82.90
55313;DHT22;46892;45.668;11.756;2023-03-31T03:22:25;11.20;82.70
55313;DHT22;46892;45.668;11.756;2023-03-31T03:24:51;11.10;82.40
55313;DHT22;46892;45.668;11.756;2023-03-31T03:27:18;11.20;82.50
55313;DHT22;46892;45.668;11.756;2023-03-31T03:29:46;11.20;82.50
55313;DHT22;46892;45.668;11.756;2023-03-31T03:32:12;11.10;82.70
55313;DHT22;46892;45.668;11.756;2023-03-31T03:34:38;11.20;82.90
55313;DHT22;46892;45.668;11.756;2023-03-31T03:37:04;11.20;83.10
55313;DHT22;46892;45.668;11.756;2023-03-31T03:39:30;11.30;83.00
55313;DHT22;46892;45.668;11.756;2023-03-31T03:41:56;11.20;82.50
55313;DHT22;46892;45.668;11.756;2023-03-31T03:44:21;11.20;82.80
55313;DHT22;46892;45.668;11.756;2023-03-31T03:46:47;11.30;82.60
55313;DHT22;46892;45.668;11.756;2023-03-31T03:49:13;11.30;81.90
55313;DHT22;46892;45.668;11.756;2023-03-31T03:51:38;11.30;82.40
55313;DHT22;46892;45.668;11.756;2023-03-31T03:54:04;11.20;82.50
55313;DHT22;46892;45.668;11.756;2023-03-31T03:56:30;11.20;82.60
55313;DHT22;46892;45.668;11.756;2023-03-31T03:58:56;11.10;82.80
55313;DHT22;46892;45.668;11.756;2023-03-31T04:01:22;11.20;82.30
55313;DHT22;46892;45.668;11.756;2023-03-31T04:03:48;11.20;82.00
55313;DHT22;46892;45.668;11.756;2023-03-31T04:06:13;11.20;82.00
55313;DHT22;46892;45.668;11.756;2023-03-31T04:08:39;11.20;82.30
55313;DHT22;46892;45.668;11.756;2023-03-31T04:11:16;11.20;82.30
55313;DHT22;46892;45.668;11.756;2023-03-31T04:13:44;11.10;82.50
55313;DHT22;46892;45.668;11.756;2023-03-31T04:16:10;11.10;82.50
55313;DHT22;46892;45.668;11.756;2023-03-31T04:18:36;11.20;82.10
55313;DHT22;46892;45.668;11.756;2023-03-31T04:21:10;11.30;81.70
55313;DHT22;46892;45.668;11.756;2023-03-31T04:23:53;11.40;80.80
55313;DHT22;46892;45.668;11.756;2023-03-31T04:26:30;11.40;81.10
55313;DHT22;46892;45.668;11.756;2023-03-31T04:29:06;11.30;81.30
55313;DHT22;46892;45.668;11.756;2023-03-31T04:31:32;11.20;81.40
55313;DHT22;46892;45.668;11.756;2023-03-31T04:33:58;11.20;81.70
55313;DHT22;46892;45.668;11.756;2023-03-31T04:36:28;11.10;81.90
55313;DHT22;46892;45.668;11.756;2023-03-31T04:38:56;11.10;82.00
55313;DHT22;46892;45.668;11.756;2023-03-31T04:41:23;11.10;82.10
55313;DHT22;46892;45.668;11.756;2023-03-31T04:43:49;11.00;82.20
55313;DHT22;46892;45.668;11.756;2023-03-31T04:46:15;11.00;82.10
55313;DHT22;46892;45.668;11.756;2023-03-31T04:48:41;11.00;82.10
55313;DHT22;46892;45.668;11.756;2023-03-31T04:51:07;11.00;82.20
55313;DHT22;46892;45.668;11.756;2023-03-31T04:53:33;11.00;82.30
55313;DHT22;46892;45.668;11.756;2023-03-31T04:55:59;11.00;82.70
55313;DHT22;46892;45.668;11.756;2023-03-31T04:58:25;11.00;83.00
55313;DHT22;46892;45.668;11.756;2023-03-31T05:00:51;11.00;83.20
55313;DHT22;46892;45.668;11.756;2023-03-31T05:03:17;11.00;83.30
55313;DHT22;46892;45.668;11.756;2023-03-31T05:05:43;11.00;83.30
55313;DHT22;46892;45.668;11.756;2023-03-31T05:08:08;11.00;83.50
55313;DHT22;46892;45.668;11.756;2023-03-31T05:10:34;11.00;83.60
55313;DHT22;46892;45.668;11.756;2023-03-31T05:13:00;11.10;83.70
55313;DHT22;46892;45.668;11.756;2023-03-31T05:15:26;11.00;83.60
55313;DHT22;46892;45.668;11.756;2023-03-31T05:17:51;11.00;83.50
55313;DHT22;46892;45.668;11.756;2023-03-31T05:20:18;11.00;83.40
55313;DHT22;46892;45.668;11.756;2023-03-31T05:22:45;10.90;83.30
55313;DHT22;46892;45.668;11.756;2023-03-31T05:25:12;10.90;83.40
55313;DHT22;46892;45.668;11.756;2023-03-31T05:27:44;10.90;83.40
55313;DHT22;46892;45.668;11.756;2023-03-31T05:30:12;11.00;83.40
55313;DHT22;46892;45.668;11.756;2023-03-31T05:32:38;11.00;83.50
55313;DHT22;46892;45.668;11.756;2023-03-31T05:35:04;11.10;83.50
55313;DHT22;46892;45.668;11.756;2023-03-31T05:37:30;11.10;83.60
55313;DHT22;46892;45.668;11.756;2023-03-31T05:39:56;11.20;84.00
55313;DHT22;46892;45.668;11.756;2023-03-31T05:42:21;11.30;83.40
55313;DHT22;46892;45.668;11.756;2023-03-31T05:44:47;11.20;83.10
55313;DHT22;46892;45.668;11.756;2023-03-31T05:47:13;11.20;83.60
55313;DHT22;46892;45.668;11.756;2023-03-31T05:49:39;11.20;83.80
55313;DHT22;46892;45.668;11.756;2023-03-31T05:52:06;11.10;83.80
55313;DHT22;46892;45.668;11.756;2023-03-31T05:54:32;11.10;83.80
55313;DHT22;46892;45.668;11.756;2023-03-31T05:56:57;11.00;83.80
55313;DHT22;46892;45.668;11.756;2023-03-31T05:59:23;11.00;83.70
55313;DHT22;46892;45.668;11.756;2023-03-31T06:01:49;11.00;83.50
55313;DHT22;46892;45.668;11.756;2023-03-31T06:04:15;11.00;83.50
55313;DHT22;46892;45.668;11.756;2023-03-31T06:06:40;11.20;83.00
55313;DHT22;46892;45.668;11.756;2023-03-31T06:09:07;11.30;82.50
55313;DHT22;46892;45.668;11.756;2023-03-31T06:11:33;11.40;81.90
55313;DHT22;46892;45.668;11.756;2023-03-31T06:13:59;11.30;82.00
55313;DHT22;46892;45.668;11.756;2023-03-31T06:16:24;11.30;82.10
55313;DHT22;46892;45.668;11.756;2023-03-31T06:18:50;11.30;82.20
55313;DHT22;46892;45.668;11.756;2023-03-31T06:21:18;11.30;82.40
55313;DHT22;46892;45.668;11.756;2023-03-31T06:23:44;11.30;82.50
55313;DHT22;46892;45.668;11.756;2023-03-31T06:26:17;11.30;82.40
55313;DHT22;46892;45.668;11.756;2023-03-31T06:28:44;11.30;82.70
55313;DHT22;46892;45.668;11.756;2023-03-31T06:31:19;11.30;83.80
55313;DHT22;46892;45.668;11.756;2023-03-31T06:33:46;11.30;84.60
55313;DHT22;46892;45.668;11.756;2023-03-31T06:36:13;11.30;84.50
55313;DHT22;46892;45.668;11.756;2023-03-31T06:38:40;11.30;84.20
55313;DHT22;46892;45.668;11.756;2023-03-31T06:41:07;11.30;84.30
55313;DHT22;46892;45.668;11.756;2023-03-31T06:43:33;11.30;84.60
55313;DHT22;46892;45.668;11.756;2023-03-31T06:46:00;11.30;84.50
55313;DHT22;46892;45.668;11.756;2023-03-31T06:48:26;11.30;84.40
55313;DHT22;46892;45.668;11.756;2023-03-31T06:50:53;11.20;84.50
55313;DHT22;46892;45.668;11.756;2023-03-31T06:53:19;11.30;85.10
55313;DHT22;46892;45.668;11.756;2023-03-31T06:55:46;11.30;84.80
55313;DHT22;46892;45.668;11.756;2023-03-31T06:58:12;11.30;84.70
55313;DHT22;46892;45.668;11.756;2023-03-31T07:00:38;11.30;84.90
55313;DHT22;46892;45.668;11.756;2023-03-31T07:03:04;11.30;84.90
55313;DHT22;46892;45.668;11.756;2023-03-31T07:05:30;11.30;84.70
55313;DHT22;46892;45.668;11.756;2023-03-31T07:07:58;11.30;84.30
55313;DHT22;46892;45.668;11.756;2023-03-31T07:10:26;11.30;84.30
55313;DHT22;46892;45.668;11.756;2023-03-31T07:12:52;11.40;84.30
55313;DHT22;46892;45.668;11.756;2023-03-31T07:15:18;11.40;84.40
55313;DHT22;46892;45.668;11.756;2023-03-31T07:17:44;11.50;84.50
55313;DHT22;46892;45.668;11.756;2023-03-31T07:20:13;11.50;84.50
55313;DHT22;46892;45.668;11.756;2023-03-31T07:22:41;11.60;84.60
55313;DHT22;46892;45.668;11.756;2023-03-31T07:25:10;11.70;84.40
55313;DHT22;46892;45.668;11.756;2023-03-31T07:27:37;11.70;84.50
55313;DHT22;46892;45.668;11.756;2023-03-31T07:30:07;11.70;84.50
55313;DHT22;46892;45.668;11.756;2023-03-31T07:32:34;11.80;84.30
55313;DHT22;46892;45.668;11.756;2023-03-31T07:35:05;11.80;84.00
55313;DHT22;46892;45.668;11.756;2023-03-31T07:37:38;11.90;83.00
55313;DHT22;46892;45.668;11.756;2023-03-31T07:40:09;12.00;82.40
55313;DHT22;46892;45.668;11.756;2023-03-31T07:42:36;12.00;81.90
55313;DHT22;46892;45.668;11.756;2023-03-31T07:45:02;12.00;81.40
55313;DHT22;46892;45.668;11.756;2023-03-31T07:47:30;12.00;81.30
55313;DHT22;46892;45.668;11.756;2023-03-31T07:49:56;12.00;81.80
55313;DHT22;46892;45.668;11.756;2023-03-31T07:52:22;12.00;82.00
55313;DHT22;46892;45.668;11.756;2023-03-31T07:54:48;11.90;82.00
55313;DHT22;46892;45.668;11.756;2023-03-31T07:57:14;11.90;81.80
55313;DHT22;46892;45.668;11.756;2023-03-31T07:59:41;11.90;81.80
55313;DHT22;46892;45.668;11.756;2023-03-31T08:02:08;11.90;82.00
55313;DHT22;46892;45.668;11.756;2023-03-31T08:04:34;11.90;81.90
55313;DHT22;46892;45.668;11.756;2023-03-31T08:07:00;11.90;81.60
55313;DHT22;46892;45.668;11.756;2023-03-31T08:09:26;11.90;81.80
55313;DHT22;46892;45.668;11.756;2023-03-31T08:11:51;12.00;81.50
55313;DHT22;46892;45.668;11.756;2023-03-31T08:14:17;12.00;81.10
55313;DHT22;46892;45.668;11.756;2023-03-31T08:16:43;12.00;81.30
55313;DHT22;46892;45.668;11.756;2023-03-31T08:19:08;12.10;81.80
55313;DHT22;46892;45.668;11.756;2023-03-31T08:21:34;12.20;81.30
55313;DHT22;46892;45.668;11.756;2023-03-31T08:24:00;12.20;81.60
55313;DHT22;46892;45.668;11.756;2023-03-31T08:26:25;12.10;81.60
55313;DHT22;46892;45.668;11.756;2023-03-31T08:28:51;12.20;81.50
55313;DHT22;46892;45.668;11.756;2023-03-31T08:31:19;12.20;81.40
55313;DHT22;46892;45.668;11.756;2023-03-31T08:33:46;12.30;81.40
55313;DHT22;46892;45.668;11.756;2023-03-31T08:36:12;12.30;81.30
55313;DHT22;46892;45.668;11.756;2023-03-31T08:38:40;12.40;80.40
55313;DHT22;46892;45.668;11.756;2023-03-31T08:41:13;12.50;79.90
55313;DHT22;46892;45.668;11.756;2023-03-31T08:43:46;12.40;79.50
55313;DHT22;46892;45.668;11.756;2023-03-31T08:46:16;12.30;79.90
55313;DHT22;46892;45.668;11.756;2023-03-31T08:48:45;12.30;79.90
55313;DHT22;46892;45.668;11.756;2023-03-31T08:53:58;12.30;79.80
55313;DHT22;46892;45.668;11.756;2023-03-31T08:56:28;12.30;80.60
55313;DHT22;46892;45.668;11.756;2023-03-31T08:58:55;12.30;80.50
55313;DHT22;46892;45.668;11.756;2023-03-31T09:01:49;12.30;80.60
55313;DHT22;46892;45.668;11.756;2023-03-31T09:04:39;12.30;80.50
55313;DHT22;46892;45.668;11.756;2023-03-31T09:12:37;12.30;80.50
55313;DHT22;46892;45.668;11.756;2023-03-31T09:18:02;12.30;81.20
55313;DHT22;46892;45.668;11.756;2023-03-31T09:20:36;12.30;80.40
55313;DHT22;46892;45.668;11.756;2023-03-31T09:25:37;12.40;80.80
55313;DHT22;46892;45.668;11.756;2023-03-31T09:28:13;12.40;80.30
55313;DHT22;46892;45.668;11.756;2023-03-31T09:30:43;12.30;80.50
55313;DHT22;46892;45.668;11.756;2023-03-31T09:33:44;12.40;80.10
55313;DHT22;46892;45.668;11.756;2023-03-31T09:36:16;12.40;80.00
55313;DHT22;46892;45.668;11.756;2023-03-31T09:38:44;12.50;80.40
55313;DHT22;46892;45.668;11.756;2023-03-31T09:41:12;12.60;80.50
55313;DHT22;46892;45.668;11.756;2023-03-31T09:43:39;12.70;80.30
55313;DHT22;46892;45.668;11.756;2023-03-31T09:46:24;12.70;80.00
55313;DHT22;46892;45.668;11.756;2023-03-31T09:49:05;12.80;79.90
55313;DHT22;46892;45.668;11.756;2023-03-31T09:51:36;12.80;79.20
55313;DHT22;46892;45.668;11.756;2023-03-31T09:59:16;12.80;79.00
55313;DHT22;46892;45.668;11.756;2023-03-31T10:01:45;12.80;78.80
55313;DHT22;46892;45.668;11.756;2023-03-31T10:04:19;12.70;79.00
55313;DHT22;46892;45.668;11.756;2023-03-31T10:06:45;12.80;79.10
55313;DHT22;46892;45.668;11.756;2023-03-31T10:09:13;12.80;79.20
55313;DHT22;46892;45.668;11.756;2023-03-31T10:11:54;12.80;79.50
55313;DHT22;46892;45.668;11.756;2023-03-31T10:14:26;12.80;79.60
55313;DHT22;46892;45.668;11.756;2023-03-31T10:16:55;12.80;79.90
55313;DHT22;46892;45.668;11.756;2023-03-31T10:19:26;12.80;79.50
55313;DHT22;46892;45.668;11.756;2023-03-31T10:22:45;12.80;79.70
55313;DHT22;46892;45.668;11.756;2023-03-31T10:24:50;12.80;80.00
55313;DHT22;46892;45.668;11.756;2023-03-31T10:27:37;12.80;80.10
55313;DHT22;46892;45.668;11.756;2023-03-31T10:30:09;12.90;81.00
55313;DHT22;46892;45.668;11.756;2023-03-31T10:32:42;13.00;81.00
55313;DHT22;46892;45.668;11.756;2023-03-31T10:35:14;13.00;80.90
55313;DHT22;46892;45.668;11.756;2023-03-31T10:37:47;13.20;79.80
55313;DHT22;46892;45.668;11.756;2023-03-31T10:40:17;13.30;79.80
55313;DHT22;46892;45.668;11.756;2023-03-31T10:42:46;13.30;79.70
55313;DHT22;46892;45.668;11.756;2023-03-31T10:45:27;13.40;79.50
55313;DHT22;46892;45.668;11.756;2023-03-31T10:47:58;13.30;79.00
55313;DHT22;46892;45.668;11.756;2023-03-31T10:50:41;13.30;78.70
55313;DHT22;46892;45.668;11.756;2023-03-31T10:53:14;13.30;78.60
55313;DHT22;46892;45.668;11.756;2023-03-31T10:56:05;13.30;79.00
55313;DHT22;46892;45.668;11.756;2023-03-31T10:58:38;13.30;78.30
55313;DHT22;46892;45.668;11.756;2023-03-31T11:07:20;13.30;78.60
55313;DHT22;46892;45.668;11.756;2023-03-31T11:13:02;13.30;79.30
55313;DHT22;46892;45.668;11.756;2023-03-31T11:29:00;13.80;78.00
55313;DHT22;46892;45.668;11.756;2023-03-31T11:39:38;14.20;78.10
55313;DHT22;46892;45.668;11.756;2023-03-31T11:42:20;14.30;75.80
55313;DHT22;46892;45.668;11.756;2023-03-31T11:44:59;14.20;75.30
55313;DHT22;46892;45.668;11.756;2023-03-31T11:47:28;14.30;76.30
55313;DHT22;46892;45.668;11.756;2023-03-31T11:50:02;14.30;76.10
55313;DHT22;46892;45.668;11.756;2023-03-31T11:52:32;14.30;75.80
55313;DHT22;46892;45.668;11.756;2023-03-31T11:57:50;14.20;75.40
55313;DHT22;46892;45.668;11.756;2023-03-31T12:00:22;14.30;75.40
55313;DHT22;46892;45.668;11.756;2023-03-31T12:03:00;14.30;76.00
55313;DHT22;46892;45.668;11.756;2023-03-31T12:05:30;14.50;75.20
55313;DHT22;46892;45.668;11.756;2023-03-31T12:08:06;14.40;74.30
55313;DHT22;46892;45.668;11.756;2023-03-31T12:10:45;14.60;75.80
55313;DHT22;46892;45.668;11.756;2023-03-31T12:18:33;15.00;74.70
55313;DHT22;46892;45.668;11.756;2023-03-31T12:21:02;15.10;73.20
55313;DHT22;46892;45.668;11.756;2023-03-31T12:23:42;15.20;71.80
55313;DHT22;46892;45.668;11.756;2023-03-31T12:28:55;14.90;71.50
55313;DHT22;46892;45.668;11.756;2023-03-31T12:31:23;15.00;72.40
55313;DHT22;46892;45.668;11.756;2023-03-31T12:34:11;15.10;73.50
55313;DHT22;46892;45.668;11.756;2023-03-31T12:45:17;15.00;71.90
55313;DHT22;46892;45.668;11.756;2023-03-31T12:47:53;14.80;71.90
55313;DHT22;46892;45.668;11.756;2023-03-31T12:55:57;14.70;73.90
55313;DHT22;46892;45.668;11.756;2023-03-31T13:06:03;14.60;74.30
55313;DHT22;46892;45.668;11.756;2023-03-31T13:08:58;14.60;74.40
55313;DHT22;46892;45.668;11.756;2023-03-31T13:16:45;14.80;72.60
55313;DHT22;46892;45.668;11.756;2023-03-31T13:19:25;14.80;72.90
55313;DHT22;46892;45.668;11.756;2023-03-31T13:21:59;14.90;72.90
55313;DHT22;46892;45.668;11.756;2023-03-31T13:24:27;15.00;73.00
55313;DHT22;46892;45.668;11.756;2023-03-31T13:26:54;15.00;74.00
55313;DHT22;46892;45.668;11.756;2023-03-31T13:29:42;15.00;74.00
55313;DHT22;46892;45.668;11.756;2023-03-31T13:48:38;14.60;74.10
55313;DHT22;46892;45.668;11.756;2023-03-31T14:07:36;14.30;74.20
55313;DHT22;46892;45.668;11.756;2023-03-31T14:10:03;14.20;74.10
55313;DHT22;46892;45.668;11.756;2023-03-31T14:12:34;14.20;74.00
55313;DHT22;46892;45.668;11.756;2023-03-31T14:15:01;14.10;74.00
55313;DHT22;46892;45.668;11.756;2023-03-31T14:17:34;14.00;74.20
55313;DHT22;46892;45.668;11.756;2023-03-31T14:28:38;13.90;74.60
55313;DHT22;46892;45.668;11.756;2023-03-31T14:37:00;13.80;75.40
55313;DHT22;46892;45.668;11.756;2023-03-31T14:39:35;13.80;75.30
55313;DHT22;46892;45.668;11.756;2023-03-31T14:42:05;13.80;75.50
55313;DHT22;46892;45.668;11.756;2023-03-31T14:44:40;13.80;75.90
55313;DHT22;46892;45.668;11.756;2023-03-31T14:47:21;13.80;76.10
55313;DHT22;46892;45.668;11.756;2023-03-31T14:49:47;13.70;76.30
55313;DHT22;46892;45.668;11.756;2023-03-31T14:52:22;13.60;76.40
55313;DHT22;46892;45.668;11.756;2023-03-31T14:54:51;13.60;76.30
55313;DHT22;46892;45.668;11.756;2023-03-31T14:57:26;13.60;76.40
55313;DHT22;46892;45.668;11.756;2023-03-31T14:59:53;13.60;77.00
55313;DHT22;46892;45.668;11.756;2023-03-31T15:02:30;13.60;77.50
55313;DHT22;46892;45.668;11.756;2023-03-31T15:04:57;13.60;78.10
55313;DHT22;46892;45.668;11.756;2023-03-31T15:07:23;13.50;77.90
55313;DHT22;46892;45.668;11.756;2023-03-31T15:09:49;13.40;78.40
55313;DHT22;46892;45.668;11.756;2023-03-31T15:12:18;13.40;78.90
55313;DHT22;46892;45.668;11.756;2023-03-31T15:14:48;13.30;79.00
55313;DHT22;46892;45.668;11.756;2023-03-31T15:17:27;13.40;79.00
55313;DHT22;46892;45.668;11.756;2023-03-31T15:19:55;13.40;79.10
55313;DHT22;46892;45.668;11.756;2023-03-31T15:22:24;13.40;79.00
55313;DHT22;46892;45.668;11.756;2023-03-31T15:24:51;13.40;79.10
55313;DHT22;46892;45.668;11.756;2023-03-31T15:27:31;13.50;79.10
55313;DHT22;46892;45.668;11.756;2023-03-31T15:30:00;13.40;78.90
55313;DHT22;46892;45.668;11.756;2023-03-31T15:32:27;13.30;79.20
55313;DHT22;46892;45.668;11.756;2023-03-31T15:34:54;13.30;79.80
55313;DHT22;46892;45.668;11.756;2023-03-31T15:37:27;13.30;79.70
55313;DHT22;46892;45.668;11.756;2023-03-31T15:39:57;13.30;79.40
55313;DHT22;46892;45.668;11.756;2023-03-31T15:42:25;13.20;79.20
55313;DHT22;46892;45.668;11.756;2023-03-31T15:47:52;13.00;80.20
55313;DHT22;46892;45.668;11.756;2023-03-31T15:50:20;13.10;80.50
55313;DHT22;46892;45.668;11.756;2023-03-31T15:52:53;13.10;80.30
55313;DHT22;46892;45.668;11.756;2023-03-31T15:55:38;13.10;80.70
55313;DHT22;46892;45.668;11.756;2023-03-31T15:58:04;13.00;80.70
55313;DHT22;46892;45.668;11.756;2023-03-31T16:03:00;13.00;80.50
55313;DHT22;46892;45.668;11.756;2023-03-31T16:07:59;12.90;80.60
55313;DHT22;46892;45.668;11.756;2023-03-31T16:10:25;12.80;80.80
55313;DHT22;46892;45.668;11.756;2023-03-31T16:13:05;12.80;80.70
55313;DHT22;46892;45.668;11.756;2023-03-31T16:15:43;12.80;80.90
55313;DHT22;46892;45.668;11.756;2023-03-31T16:18:15;12.80;81.00
55313;DHT22;46892;45.668;11.756;2023-03-31T16:20:49;12.80;80.90
55313;DHT22;46892;45.668;11.756;2023-03-31T16:23:23;12.80;80.60
55313;DHT22;46892;45.668;11.756;2023-03-31T16:25:50;12.80;81.00
55313;DHT22;46892;45.668;11.756;2023-03-31T16:28:25;12.80;81.00
55313;DHT22;46892;45.668;11.756;2023-03-31T16:30:51;12.70;81.30
55313;DHT22;46892;45.668;11.756;2023-03-31T16:33:21;12.70;81.00
55313;DHT22;46892;45.668;11.756;2023-03-31T16:35:53;12.80;81.00
55313;DHT22;46892;45.668;11.756;2023-03-31T16:38:28;12.80;80.80
55313;DHT22;46892;45.668;11.756;2023-03-31T16:40:57;12.80;80.80
55313;DHT22;46892;45.668;11.756;2023-03-31T16:43:26;12.80;80.70
55313;DHT22;46892;45.668;11.756;2023-03-31T16:45:54;12.70;81.10
55313;DHT22;46892;45.668;11.756;2023-03-31T16:48:22;12.70;81.10
55313;DHT22;46892;45.668;11.756;2023-03-31T16:50:50;12.70;81.50
55313;DHT22;46892;45.668;11.756;2023-03-31T16:53:19;12.70;81.30
55313;DHT22;46892;45.668;11.756;2023-03-31T16:55:45;12.70;81.70
55313;DHT22;46892;45.668;11.756;2023-03-31T16:58:11;12.80;81.50
55313;DHT22;46892;45.668;11.756;2023-03-31T17:00:37;12.80;82.10
55313;DHT22;46892;45.668;11.756;2023-03-31T17:03:05;12.70;82.30
55313;DHT22;46892;45.668;11.756;2023-03-31T17:05:40;12.70;82.50
55313;DHT22;46892;45.668;11.756;2023-03-31T17:08:06;12.60;82.90
55313;DHT22;46892;45.668;11.756;2023-03-31T17:10:33;12.60;82.80
55313;DHT22;46892;45.668;11.756;2023-03-31T17:12:59;12.50;82.30
55313;DHT22;46892;45.668;11.756;2023-03-31T17:15:25;12.40;82.80
55313;DHT22;46892;45.668;11.756;2023-03-31T17:17:51;12.30;83.30
55313;DHT22;46892;45.668;11.756;2023-03-31T17:20:16;12.30;83.50
55313;DHT22;46892;45.668;11.756;2023-03-31T17:22:42;12.30;83.50
55313;DHT22;46892;45.668;11.756;2023-03-31T17:25:08;12.30;83.60
55313;DHT22;46892;45.668;11.756;2023-03-31T17:27:34;12.40;83.60
55313;DHT22;46892;45.668;11.756;2023-03-31T17:30:00;12.30;83.50
55313;DHT22;46892;45.668;11.756;2023-03-31T17:32:26;12.30;84.00
55313;DHT22;46892;45.668;11.756;2023-03-31T17:34:52;12.20;84.30
55313;DHT22;46892;45.668;11.756;2023-03-31T17:37:18;12.20;84.70
55313;DHT22;46892;45.668;11.756;2023-03-31T17:39:44;12.00;84.90
55313;DHT22;46892;45.668;11.756;2023-03-31T17:42:10;12.00;85.30
55313;DHT22;46892;45.668;11.756;2023-03-31T17:44:37;11.90;85.40
55313;DHT22;46892;45.668;11.756;2023-03-31T17:47:03;11.90;85.40
55313;DHT22;46892;45.668;11.756;2023-03-31T17:49:29;12.00;85.40
55313;DHT22;46892;45.668;11.756;2023-03-31T17:51:56;11.90;86.00
55313;DHT22;46892;45.668;11.756;2023-03-31T17:54:22;11.80;86.20
55313;DHT22;46892;45.668;11.756;2023-03-31T17:56:48;11.80;86.30
55313;DHT22;46892;45.668;11.756;2023-03-31T17:59:15;11.80;86.50
55313;DHT22;46892;45.668;11.756;2023-03-31T18:01:41;11.70;86.80
55313;DHT22;46892;45.668;11.756;2023-03-31T18:04:06;11.80;86.40
55313;DHT22;46892;45.668;11.756;2023-03-31T18:06:32;11.70;86.60
55313;DHT22;46892;45.668;11.756;2023-03-31T18:08:58;11.80;86.60
55313;DHT22;46892;45.668;11.756;2023-03-31T18:11:24;11.80;86.30
55313;DHT22;46892;45.668;11.756;2023-03-31T18:13:51;11.80;85.70
55313;DHT22;46892;45.668;11.756;2023-03-31T18:16:17;11.80;86.00
55313;DHT22;46892;45.668;11.756;2023-03-31T18:18:43;11.80;86.10
55313;DHT22;46892;45.668;11.756;2023-03-31T18:21:11;11.70;86.20
55313;DHT22;46892;45.668;11.756;2023-03-31T18:23:38;11.70;86.40
55313;DHT22;46892;45.668;11.756;2023-03-31T18:26:08;11.70;86.50
55313;DHT22;46892;45.668;11.756;2023-03-31T18:28:34;11.80;86.60
55313;DHT22;46892;45.668;11.756;2023-03-31T18:31:04;11.80;86.50